Portada
METAR-TAF:

METAR-TAF

Aeroports :

Budjnurd, Iran

latitud: 37-28N, longitud: 057-20E, altitud: 1074 m

Observació

L'informe es va fer fa 1 hora i 13 minuts, a les 05:00 UTC
Vent calma
Temperatura 3°C
Humitat 65%
Pressió 1016 hPa
Visibilitat 10 km o més
Escasses núvols a una alçada de 4000 ft
Cel ennuvolat a una alçada de 8000 ft
Cel cobert a una alçada de 16000 ft

METAR: OIMN 200500Z 00000KT 9999 FEW040 BKN080 OVC160 03/M03 Q1016

Hora: 09:43 (06:13 UTC)


TAF: manca

Observacions i pronòstics meteorològics de més de 4000 aeroports (METAR i TAF).

Les estacions disponibles són els punts grocs i vermells al mapa.

Posi el ratolí al punt desitjat per veure el nom de l'estació.

Feu clic per veure les observacions i els pronòstics meteorològics.

Per canviar el mapa: feu clic els botons verds amb una creu de color negre per apropar; al botó verd amb un guió per allunyar la imatge; o en les fletxes verdes per a mapes adjacents.


METAR-TAF: